createdAt,value
2022-12-01T00:01:09.452Z,39.03
2022-12-01T00:03:36.169Z,34.53
2022-12-01T00:06:09.912Z,33.08
2022-12-01T00:08:36.609Z,38.17
2022-12-01T00:11:08.109Z,37.47
2022-12-01T00:13:35.636Z,34.05
2022-12-01T00:16:13.584Z,33.35
2022-12-01T00:18:40.242Z,41.83
2022-12-01T00:21:13.412Z,50.13
2022-12-01T00:26:09.132Z,38.80
2022-12-01T00:28:35.711Z,46.25
2022-12-01T00:31:07.376Z,46.28
2022-12-01T00:33:33.956Z,43.13
2022-12-01T00:36:01.129Z,46.45
2022-12-01T00:38:28.605Z,41.40
2022-12-01T00:40:55.503Z,48.97
2022-12-01T00:43:22.317Z,43.88
2022-12-01T00:45:48.994Z,49.97
2022-12-01T00:48:15.889Z,47.55
2022-12-01T00:50:42.933Z,47.15
2022-12-01T00:53:09.553Z,46.92
2022-12-01T00:55:36.198Z,49.97
2022-12-01T00:58:02.841Z,46.75
2022-12-01T01:00:31.004Z,50.00
2022-12-01T01:02:57.701Z,51.50
2022-12-01T01:05:24.281Z,50.80
2022-12-01T01:07:50.984Z,54.50
2022-12-01T01:10:17.667Z,46.25
2022-12-01T01:12:44.230Z,44.80
2022-12-01T01:15:10.996Z,48.70
2022-12-01T01:17:37.548Z,46.67
2022-12-01T01:20:04.639Z,45.65
2022-12-01T01:22:31.216Z,49.35
2022-12-01T01:24:57.777Z,49.85
2022-12-01T01:27:24.385Z,45.35
2022-12-01T01:29:51.140Z,50.85
2022-12-01T01:32:17.849Z,45.47
2022-12-01T01:34:45.450Z,45.92
2022-12-01T01:37:12.030Z,43.60
2022-12-01T01:39:38.603Z,45.72
2022-12-01T01:42:05.171Z,49.00
2022-12-01T01:44:58.421Z,41.35
2022-12-01T01:47:30.698Z,44.05
2022-12-01T01:50:05.256Z,48.33
2022-12-01T01:52:33.636Z,49.80
2022-12-01T01:55:00.839Z,48.30
2022-12-01T01:57:30.169Z,53.17
2022-12-01T02:00:07.607Z,48.13
2022-12-01T02:02:40.651Z,46.78
2022-12-01T02:07:42.073Z,49.38
2022-12-01T02:10:12.822Z,42.58
2022-12-01T02:13:07.201Z,45.38
2022-12-01T02:15:44.797Z,38.95
2022-12-01T02:18:23.565Z,43.17
2022-12-01T02:21:24.049Z,39.17
2022-12-01T02:24:47.895Z,35.88
2022-12-01T02:27:33.550Z,38.75
2022-12-01T02:30:14.239Z,35.53
2022-12-01T02:33:01.981Z,38.72
2022-12-01T02:35:58.117Z,43.20
2022-12-01T02:38:24.683Z,43.08
2022-12-01T02:41:13.688Z,39.17
2022-12-01T02:43:53.232Z,50.15
2022-12-01T02:46:31.241Z,48.10
2022-12-01T02:49:01.952Z,41.97
2022-12-01T02:51:34.129Z,50.65
2022-12-01T02:54:03.574Z,51.25
2022-12-01T02:56:30.186Z,52.63
2022-12-01T02:58:56.954Z,42.17
2022-12-01T03:01:42.587Z,47.03
2022-12-01T03:04:21.644Z,50.13
2022-12-01T03:06:54.438Z,48.15
2022-12-01T03:12:21.987Z,43.58
2022-12-01T03:15:10.976Z,44.95
2022-12-01T03:17:45.857Z,45.67
2022-12-01T03:20:27.660Z,40.90
2022-12-01T03:23:01.537Z,43.85
2022-12-01T03:25:29.220Z,43.85
2022-12-01T03:28:21.489Z,35.53
2022-12-01T03:30:46.701Z,38.15
2022-12-01T03:33:22.356Z,46.65
2022-12-01T03:35:57.682Z,50.08
2022-12-01T03:38:27.049Z,53.60
2022-12-01T03:41:01.204Z,46.42
2022-12-01T03:43:33.315Z,49.50
2022-12-01T03:46:29.531Z,54.55
2022-12-01T03:48:56.594Z,54.25
2022-12-01T03:51:49.517Z,50.88
2022-12-01T03:54:28.940Z,51.00
2022-12-01T03:57:03.146Z,49.65
2022-12-01T03:59:32.302Z,45.80
2022-12-01T04:01:59.032Z,44.60
2022-12-01T04:04:25.618Z,44.67
2022-12-01T04:06:52.707Z,50.33
2022-12-01T04:09:19.318Z,42.45
2022-12-01T04:12:04.056Z,40.63
2022-12-01T04:14:30.660Z,37.67
2022-12-01T04:16:57.254Z,36.70
2022-12-01T04:19:23.817Z,41.80
2022-12-01T04:21:50.401Z,36.20
2022-12-01T04:24:17.125Z,32.80
2022-12-01T04:26:45.975Z,33.33
2022-12-01T04:29:13.695Z,34.17
2022-12-01T04:31:40.605Z,35.20
2022-12-01T04:34:07.579Z,39.85
2022-12-01T04:36:35.392Z,36.90
2022-12-01T04:39:02.896Z,36.05
2022-12-01T04:41:29.689Z,33.65
2022-12-01T04:43:56.550Z,31.77
2022-12-01T04:46:24.051Z,34.80
2022-12-01T04:48:50.996Z,32.47
2022-12-01T04:51:17.846Z,34.00
2022-12-01T04:53:44.610Z,32.05
2022-12-01T04:56:11.373Z,30.67
2022-12-01T04:58:38.334Z,28.35
2022-12-01T05:01:07.958Z,34.00
2022-12-01T05:03:42.020Z,30.83
2022-12-01T05:06:12.689Z,30.92
2022-12-01T05:08:39.606Z,32.45
2022-12-01T05:11:08.013Z,29.83
2022-12-01T05:13:37.156Z,32.03
2022-12-01T05:16:14.596Z,31.50
2022-12-01T05:18:41.728Z,33.47
2022-12-01T05:21:10.677Z,33.05
2022-12-01T05:23:38.892Z,36.97
2022-12-01T05:26:07.759Z,31.63
2022-12-01T05:28:34.909Z,30.73
2022-12-01T05:31:02.120Z,31.42
2022-12-01T05:33:29.462Z,29.67
2022-12-01T05:35:56.384Z,33.83
2022-12-01T05:38:23.021Z,29.90
2022-12-01T05:40:51.789Z,29.90
2022-12-01T05:43:21.604Z,31.67
2022-12-01T05:45:50.641Z,34.17
2022-12-01T05:48:18.005Z,28.60
2022-12-01T05:50:44.749Z,30.58
2022-12-01T05:53:12.865Z,30.58
2022-12-01T05:55:39.926Z,31.77
2022-12-01T05:58:06.557Z,32.22
2022-12-01T06:00:33.687Z,32.35
2022-12-01T06:03:00.250Z,31.73
2022-12-01T06:05:26.832Z,34.85
2022-12-01T06:07:54.717Z,32.92
2022-12-01T06:10:21.579Z,34.80
2022-12-01T06:12:48.179Z,31.52
2022-12-01T06:15:15.466Z,34.88
2022-12-01T06:17:42.250Z,32.90
2022-12-01T06:20:09.926Z,31.15
2022-12-01T06:22:36.703Z,34.13
2022-12-01T06:25:03.518Z,35.65
2022-12-01T06:27:30.094Z,35.78
2022-12-01T06:29:56.682Z,32.08
2022-12-01T06:32:23.298Z,39.67
2022-12-01T06:34:49.890Z,33.85
2022-12-01T06:37:16.910Z,32.45
2022-12-01T06:39:43.678Z,36.20
2022-12-01T06:42:10.504Z,33.55
2022-12-01T06:44:37.146Z,30.52
2022-12-01T06:47:04.025Z,39.95
2022-12-01T06:49:30.713Z,46.05
2022-12-01T06:51:57.299Z,39.45
2022-12-01T06:54:23.961Z,36.15
2022-12-01T06:56:50.678Z,39.38
2022-12-01T06:59:17.817Z,36.58
2022-12-01T07:01:44.974Z,45.70
2022-12-01T07:04:11.593Z,44.35
2022-12-01T07:06:38.199Z,45.63
2022-12-01T07:09:04.853Z,42.00
2022-12-01T07:11:32.403Z,37.05
2022-12-01T07:13:59.057Z,38.45
2022-12-01T07:16:25.739Z,40.50
2022-12-01T07:18:52.929Z,39.22
2022-12-01T07:21:19.528Z,37.47
2022-12-01T07:23:46.169Z,39.55
2022-12-01T07:26:17.858Z,40.70
2022-12-01T07:28:45.162Z,37.38
2022-12-01T07:31:19.581Z,33.85
2022-12-01T07:33:46.420Z,38.78
2022-12-01T07:36:13.860Z,44.58
2022-12-01T07:38:40.905Z,36.95
2022-12-01T07:41:13.952Z,37.45
2022-12-01T07:43:41.383Z,33.45
2022-12-01T07:46:22.382Z,36.70
2022-12-01T07:48:50.110Z,37.90
2022-12-01T07:51:17.419Z,37.78
2022-12-01T07:53:45.299Z,37.58
2022-12-01T07:56:12.504Z,35.92
2022-12-01T07:58:39.332Z,40.65
2022-12-01T08:01:10.751Z,36.22
2022-12-01T08:03:37.932Z,36.80
2022-12-01T08:06:06.027Z,37.90
2022-12-01T08:08:34.235Z,38.72
2022-12-01T08:11:03.422Z,37.17
2022-12-01T08:13:30.264Z,34.13
2022-12-01T08:15:57.297Z,34.00
2022-12-01T08:18:24.398Z,35.13
2022-12-01T08:20:51.746Z,34.08
2022-12-01T08:23:18.481Z,35.95
2022-12-01T08:25:45.118Z,38.70
2022-12-01T08:28:11.727Z,37.80
2022-12-01T08:30:38.346Z,34.15
2022-12-01T08:33:04.909Z,36.78
2022-12-01T08:35:32.775Z,36.38
2022-12-01T08:37:59.338Z,37.00
2022-12-01T08:40:25.986Z,41.38
2022-12-01T08:42:53.272Z,36.38
2022-12-01T08:45:20.441Z,32.80
2022-12-01T08:47:47.609Z,39.53
2022-12-01T08:50:14.269Z,38.35
2022-12-01T08:52:40.906Z,40.05
2022-12-01T08:55:08.431Z,38.92
2022-12-01T08:57:35.061Z,42.05
2022-12-01T09:00:01.910Z,45.03
2022-12-01T09:02:28.695Z,56.33
2022-12-01T09:04:55.598Z,43.10
2022-12-01T09:07:26.348Z,40.45
2022-12-01T09:09:53.551Z,36.92
2022-12-01T09:12:20.189Z,37.60
2022-12-01T09:14:49.887Z,32.22
2022-12-01T09:17:17.633Z,34.55
2022-12-01T09:19:44.738Z,33.53
2022-12-01T09:22:12.069Z,37.30
2022-12-01T09:24:38.838Z,41.67
2022-12-01T09:27:06.063Z,36.03
2022-12-01T09:29:32.942Z,39.85
2022-12-01T09:32:00.597Z,36.85
2022-12-01T09:34:29.072Z,39.42
2022-12-01T09:36:57.706Z,46.33
2022-12-01T09:39:25.025Z,43.33
2022-12-01T09:42:12.916Z,50.95
2022-12-01T09:44:48.787Z,36.38
2022-12-01T09:47:21.452Z,43.70
2022-12-01T09:50:02.501Z,50.35
2022-12-01T09:52:34.161Z,42.60
2022-12-01T09:55:01.660Z,46.20
2022-12-01T09:57:35.385Z,44.45
2022-12-01T10:00:12.656Z,46.08
2022-12-01T10:03:07.027Z,45.28
2022-12-01T10:06:10.446Z,47.92
2022-12-01T10:08:37.311Z,45.88
2022-12-01T10:11:20.491Z,41.25
2022-12-01T10:13:47.139Z,44.00
2022-12-01T10:16:19.145Z,44.15
2022-12-01T10:18:50.246Z,40.35
2022-12-01T10:21:39.930Z,51.05
2022-12-01T10:24:31.065Z,48.85
2022-12-01T10:27:12.850Z,46.85
2022-12-01T10:29:58.461Z,42.28
2022-12-01T10:32:56.285Z,49.95
2022-12-01T10:35:26.941Z,47.13
2022-12-01T10:38:18.417Z,44.72
2022-12-01T10:40:45.924Z,50.92
2022-12-01T10:43:12.570Z,47.67
2022-12-01T10:45:44.033Z,46.53
2022-12-01T10:48:15.344Z,51.83
2022-12-01T10:51:15.420Z,52.80
2022-12-01T10:53:42.012Z,47.63
2022-12-01T10:56:19.245Z,58.55
2022-12-01T10:58:50.360Z,58.80
2022-12-01T11:01:20.713Z,56.10
2022-12-01T11:03:57.814Z,52.80
2022-12-01T11:06:27.933Z,60.35
2022-12-01T11:09:03.554Z,62.33
2022-12-01T11:11:38.992Z,58.55
2022-12-01T11:14:18.471Z,63.85
2022-12-01T11:16:47.668Z,69.32
2022-12-01T11:19:14.305Z,57.92
2022-12-01T11:21:49.593Z,63.10
2022-12-01T11:24:28.957Z,58.83
2022-12-01T11:26:58.811Z,62.25
2022-12-01T11:29:25.346Z,62.20
2022-12-01T11:31:53.163Z,69.78
2022-12-01T11:34:29.907Z,57.88
2022-12-01T11:37:00.317Z,60.80
2022-12-01T11:39:35.686Z,62.00
2022-12-01T11:42:14.310Z,53.50
2022-12-01T11:44:51.799Z,49.10
2022-12-01T11:47:25.225Z,65.20
2022-12-01T11:52:38.921Z,65.90
2022-12-01T11:55:11.524Z,67.20
2022-12-01T11:57:42.640Z,68.55
2022-12-01T12:00:24.050Z,79.90
2022-12-01T12:03:02.168Z,70.50
2022-12-01T12:05:45.531Z,70.97
2022-12-01T12:08:43.945Z,62.17
2022-12-01T12:11:22.733Z,69.07
2022-12-01T12:14:10.582Z,68.65
2022-12-01T12:16:55.627Z,63.97
2022-12-01T12:20:06.301Z,66.60
2022-12-01T12:22:42.377Z,67.43
2022-12-01T12:25:27.433Z,62.35
2022-12-01T12:28:15.617Z,63.05
2022-12-01T12:31:17.219Z,67.70
2022-12-01T12:33:59.443Z,55.67
2022-12-01T12:36:43.540Z,61.78
2022-12-01T12:39:37.839Z,59.25
2022-12-01T12:42:22.267Z,56.78
2022-12-01T12:45:26.071Z,52.22
2022-12-01T12:48:04.409Z,61.75
2022-12-01T12:50:49.078Z,60.47
2022-12-01T12:53:22.206Z,58.72
2022-12-01T12:58:27.292Z,57.60
2022-12-01T13:01:13.811Z,51.70
2022-12-01T13:03:55.530Z,51.83
2022-12-01T13:06:46.074Z,62.25
2022-12-01T13:09:26.289Z,56.28
2022-12-01T13:12:04.794Z,57.13
2022-12-01T13:15:00.854Z,53.10
2022-12-01T13:17:36.598Z,45.70
2022-12-01T13:20:07.590Z,43.95
2022-12-01T13:22:35.898Z,44.10
2022-12-01T13:25:04.268Z,46.03
2022-12-01T13:27:41.025Z,47.65
2022-12-01T13:30:18.266Z,47.05
2022-12-01T13:32:46.097Z,50.25
2022-12-01T13:35:32.310Z,46.10
2022-12-01T13:38:20.310Z,49.42
2022-12-01T13:40:47.689Z,44.55
2022-12-01T13:43:20.820Z,43.85
2022-12-01T13:48:51.764Z,50.65
2022-12-01T13:51:18.549Z,46.05
2022-12-01T13:53:57.404Z,47.90
2022-12-01T13:56:39.356Z,42.05
2022-12-01T14:02:13.395Z,41.70
2022-12-01T14:04:40.015Z,41.42
2022-12-01T14:07:21.698Z,50.30
2022-12-01T14:09:51.890Z,45.50
2022-12-01T14:12:26.220Z,41.50
2022-12-01T14:14:58.256Z,43.63
2022-12-01T14:17:38.120Z,44.80
2022-12-01T14:20:13.109Z,51.78
2022-12-01T14:22:48.635Z,53.20
2022-12-01T14:25:21.297Z,44.95
2022-12-01T14:27:50.781Z,46.33
2022-12-01T14:30:48.149Z,47.15
2022-12-01T14:33:39.748Z,55.00
2022-12-01T14:36:25.741Z,50.13
2022-12-01T14:38:58.269Z,49.22
2022-12-01T14:41:31.360Z,47.55
2022-12-01T14:44:05.970Z,53.58
2022-12-01T14:46:43.126Z,46.35
2022-12-01T14:49:15.484Z,47.50
2022-12-01T14:51:46.122Z,46.10
2022-12-01T14:54:20.759Z,47.70
2022-12-01T14:56:51.303Z,48.17
2022-12-01T14:59:24.269Z,47.00
2022-12-01T15:01:56.048Z,51.38
2022-12-01T15:04:22.693Z,48.13
2022-12-01T15:06:56.086Z,49.85
2022-12-01T15:09:39.029Z,51.95
2022-12-01T15:12:09.281Z,50.20
2022-12-01T15:14:38.883Z,48.63
2022-12-01T15:17:08.876Z,52.13
2022-12-01T15:19:37.710Z,48.53
2022-12-01T15:22:15.631Z,53.70
2022-12-01T15:24:43.505Z,55.97
2022-12-01T15:27:30.331Z,59.53
2022-12-01T15:30:03.308Z,53.30
2022-12-01T15:32:32.080Z,49.75
2022-12-01T15:35:04.714Z,49.95
2022-12-01T15:37:42.590Z,50.28
2022-12-01T15:45:42.868Z,51.33
2022-12-01T15:48:17.906Z,63.25
2022-12-01T15:50:58.821Z,51.20
2022-12-01T15:53:32.801Z,50.33
2022-12-01T15:56:03.206Z,56.30
2022-12-01T15:58:33.710Z,58.78
2022-12-01T16:01:01.860Z,53.90
2022-12-01T16:03:29.189Z,53.63
2022-12-01T16:05:57.048Z,57.65
2022-12-01T16:08:26.709Z,54.65
2022-12-01T16:11:18.558Z,60.55
2022-12-01T16:13:48.916Z,55.65
2022-12-01T16:16:33.227Z,57.22
2022-12-01T16:19:02.894Z,61.33
2022-12-01T16:21:42.281Z,53.45
2022-12-01T16:24:30.535Z,48.75
2022-12-01T16:27:16.510Z,52.05
2022-12-01T16:29:50.004Z,53.78
2022-12-01T16:32:40.623Z,51.40
2022-12-01T16:35:26.575Z,54.25
2022-12-01T16:37:54.478Z,46.83
2022-12-01T16:40:21.178Z,49.42
2022-12-01T16:42:49.959Z,50.78
2022-12-01T16:45:19.006Z,49.08
2022-12-01T16:47:48.030Z,52.95
2022-12-01T16:50:16.200Z,46.65
2022-12-01T16:52:44.650Z,53.28
2022-12-01T16:55:30.473Z,53.03
2022-12-01T16:57:57.166Z,51.03
2022-12-01T17:00:24.152Z,46.95
2022-12-01T17:02:51.081Z,53.75
2022-12-01T17:05:17.850Z,48.30
2022-12-01T17:07:44.532Z,52.83
2022-12-01T17:10:11.488Z,56.03
2022-12-01T17:12:38.309Z,48.95
2022-12-01T17:15:06.654Z,46.85
2022-12-01T17:17:33.355Z,46.55
2022-12-01T17:19:59.952Z,47.03
2022-12-01T17:22:26.530Z,43.80
2022-12-01T17:24:54.891Z,42.42
2022-12-01T17:27:22.833Z,52.17
2022-12-01T17:29:49.409Z,40.80
2022-12-01T17:32:15.994Z,50.13
2022-12-01T17:34:42.578Z,41.97
2022-12-01T17:37:09.175Z,37.42
2022-12-01T17:39:35.950Z,43.30
2022-12-01T17:42:02.583Z,45.22
2022-12-01T17:44:29.199Z,46.17
2022-12-01T17:46:55.850Z,43.72
2022-12-01T17:49:22.546Z,43.72
2022-12-01T17:51:49.180Z,48.55
2022-12-01T17:54:15.889Z,45.90
2022-12-01T17:56:42.824Z,44.85
2022-12-01T17:59:09.438Z,46.88
2022-12-01T18:01:36.190Z,45.83
2022-12-01T18:04:02.906Z,49.45
2022-12-01T18:06:29.481Z,48.03
2022-12-01T18:08:57.521Z,51.33
2022-12-01T18:11:24.293Z,44.33
2022-12-01T18:13:51.864Z,54.97
2022-12-01T18:16:21.279Z,51.30
2022-12-01T18:18:48.430Z,46.70
2022-12-01T18:21:17.893Z,52.30
2022-12-01T18:23:56.806Z,48.55
2022-12-01T18:26:24.422Z,51.13
2022-12-01T18:29:03.198Z,49.55
2022-12-01T18:31:30.446Z,58.08
2022-12-01T18:34:04.889Z,50.10
2022-12-01T18:36:35.021Z,49.90
2022-12-01T18:39:02.604Z,64.00
2022-12-01T18:41:29.562Z,57.25
2022-12-01T18:43:56.257Z,52.45
2022-12-01T18:46:23.075Z,55.58
2022-12-01T18:48:53.235Z,53.15
2022-12-01T18:51:21.053Z,56.05
2022-12-01T18:53:47.912Z,55.90
2022-12-01T18:56:15.628Z,52.58
2022-12-01T18:58:42.429Z,55.25
2022-12-01T19:01:27.090Z,56.28
2022-12-01T19:03:57.955Z,54.67
2022-12-01T19:06:25.595Z,57.03
2022-12-01T19:08:53.529Z,53.83
2022-12-01T19:11:20.756Z,58.72
2022-12-01T19:13:47.882Z,56.38
2022-12-01T19:16:19.508Z,58.65
2022-12-01T19:18:46.250Z,59.53
2022-12-01T19:21:17.491Z,59.42
2022-12-01T19:23:45.216Z,50.83
2022-12-01T19:26:14.923Z,56.30
2022-12-01T19:28:42.343Z,53.58
2022-12-01T19:31:11.530Z,52.67
2022-12-01T19:33:38.469Z,47.13
2022-12-01T19:36:09.980Z,51.75
2022-12-01T19:38:36.613Z,53.33
2022-12-01T19:41:03.773Z,59.03
2022-12-01T19:43:30.366Z,52.08
2022-12-01T19:45:57.063Z,56.10
2022-12-01T19:48:23.711Z,56.83
2022-12-01T19:50:50.288Z,68.78
2022-12-01T19:53:16.887Z,61.80
2022-12-01T19:55:43.513Z,53.50
2022-12-01T19:58:10.193Z,56.72
2022-12-01T20:00:36.801Z,55.63
2022-12-01T20:03:03.937Z,59.72
2022-12-01T20:05:32.512Z,57.47
2022-12-01T20:07:59.248Z,55.60
2022-12-01T20:10:25.927Z,50.53
2022-12-01T20:12:52.777Z,59.92
2022-12-01T20:15:19.521Z,57.47
2022-12-01T20:17:46.107Z,55.75
2022-12-01T20:20:13.208Z,54.50
2022-12-01T20:22:39.833Z,58.03
2022-12-01T20:25:06.825Z,54.17
2022-12-01T20:27:33.537Z,50.33
2022-12-01T20:30:00.138Z,53.13
2022-12-01T20:32:27.376Z,56.22
2022-12-01T20:34:53.992Z,57.97
2022-12-01T20:37:20.614Z,54.88
2022-12-01T20:39:47.499Z,54.22
2022-12-01T20:42:14.065Z,50.08
2022-12-01T20:44:40.821Z,50.85
2022-12-01T20:47:07.546Z,52.42
2022-12-01T20:49:34.390Z,61.13
2022-12-01T20:52:00.984Z,49.25
2022-12-01T20:54:29.139Z,52.83
2022-12-01T20:56:57.188Z,54.67
2022-12-01T20:59:23.859Z,61.63
2022-12-01T21:01:50.449Z,63.42
2022-12-01T21:04:17.684Z,58.22
2022-12-01T21:06:44.408Z,69.47
2022-12-01T21:09:12.441Z,72.07
2022-12-01T21:12:17.601Z,63.50
2022-12-01T21:15:25.473Z,69.45
2022-12-01T21:18:09.357Z,63.55
2022-12-01T21:20:40.660Z,64.20
2022-12-01T21:23:13.047Z,65.18
2022-12-01T21:25:41.415Z,59.60
2022-12-01T21:28:20.169Z,63.40
2022-12-01T21:30:48.224Z,65.38
2022-12-01T21:33:31.911Z,60.83
2022-12-01T21:36:00.870Z,67.00
2022-12-01T21:38:28.205Z,62.65
2022-12-01T21:40:54.891Z,62.20
2022-12-01T21:43:24.734Z,57.90
2022-12-01T21:46:02.084Z,66.30
2022-12-01T21:48:35.132Z,58.25
2022-12-01T21:51:07.181Z,64.00
2022-12-01T21:53:37.684Z,67.78
2022-12-01T21:56:04.406Z,62.22
2022-12-01T21:58:35.386Z,67.63
2022-12-01T22:01:03.206Z,60.83
2022-12-01T22:03:45.710Z,64.95
2022-12-01T22:06:30.763Z,70.73
2022-12-01T22:09:10.474Z,68.00
2022-12-01T22:11:37.269Z,70.35
2022-12-01T22:14:18.850Z,72.50
2022-12-01T22:16:56.349Z,62.35
2022-12-01T22:19:34.470Z,64.72
2022-12-01T22:22:01.039Z,66.65
2022-12-01T22:24:33.676Z,69.78
2022-12-01T22:27:11.831Z,62.17
2022-12-01T22:29:49.078Z,60.90
2022-12-01T22:32:15.625Z,64.57
2022-12-01T22:34:49.519Z,72.88
2022-12-01T22:37:20.830Z,61.03
2022-12-01T22:39:50.106Z,60.67
2022-12-01T22:42:27.964Z,61.03
2022-12-01T22:44:54.528Z,62.10
2022-12-01T22:47:21.113Z,63.75
2022-12-01T22:49:47.675Z,60.03
2022-12-01T22:52:28.508Z,57.33
2022-12-01T22:54:55.256Z,58.00
2022-12-01T22:57:35.137Z,57.58
2022-12-01T23:00:15.015Z,63.13
2022-12-01T23:02:41.748Z,62.92
2022-12-01T23:05:29.091Z,55.88
2022-12-01T23:07:57.145Z,66.97
2022-12-01T23:10:28.518Z,62.28
2022-12-01T23:13:00.365Z,59.15
2022-12-01T23:15:41.041Z,67.10
2022-12-01T23:18:24.107Z,62.80
2022-12-01T23:21:01.339Z,65.15
2022-12-01T23:23:35.701Z,60.58
2022-12-01T23:26:04.645Z,57.72
2022-12-01T23:28:31.270Z,59.25
2022-12-01T23:30:59.681Z,61.80
2022-12-01T23:33:29.242Z,56.42
2022-12-01T23:36:15.344Z,60.85
2022-12-01T23:38:51.773Z,56.47
2022-12-01T23:41:41.207Z,59.45
2022-12-01T23:44:29.361Z,59.00
2022-12-01T23:46:58.692Z,55.83
2022-12-01T23:49:29.860Z,56.88
2022-12-01T23:52:00.354Z,55.25
2022-12-01T23:54:31.209Z,58.33
2022-12-01T23:57:01.600Z,56.83
2022-12-01T23:59:30.089Z,56.83
